Time;durP1;ratioP1;P1;durP2;ratioP2;P2;SDS_P1;SDS_P2;PMS_P1;PMS_P2;Temp;Humidity;BMP_temperature;BMP_pressure;BME280_temperature;BME280_humidity;BME280_pressure;Samples;Min_cycle;Max_cycle;Signal;HPM_P1;HPM_P2
2021/05/02 00:01:56;;;;;;;;;;;10.10;62.80;;;;;;4274209;33;26725;-77
2021/05/02 00:04:28;;;;;;;;;;;10.10;62.80;;;;;;4274289;33;31631;-77
2021/05/02 00:07:02;;;;;;;;;;;10.10;62.80;;;;;;4274141;33;39538;-76
2021/05/02 00:09:30;;;;;;;;;;;10.10;62.80;;;;;;4273872;33;36514;-76
2021/05/02 00:12:00;;;;;;;;;;;10.10;62.90;;;;;;4287829;33;20365;-77
2021/05/02 00:14:35;;;;;;;;;;;10.00;63.00;;;;;;4262772;33;20415;-77
2021/05/02 00:17:08;;;;;;;;;;;10.00;63.10;;;;;;4274033;33;28086;-76
2021/05/02 00:19:42;;;;;;;;;;;9.90;63.20;;;;;;4274623;33;32037;-77
2021/05/02 00:22:18;;;;;;;;;;;9.90;63.30;;;;;;4274868;33;20019;-76
2021/05/02 00:24:53;;;;;;;;;;;9.90;63.40;;;;;;4273794;33;33037;-76
2021/05/02 00:27:23;;;;;;;;;;;9.90;63.40;;;;;;4274141;33;35209;-77
2021/05/02 00:29:52;;;;;;;;;;;9.90;63.50;;;;;;4287118;33;44989;-76
2021/05/02 00:32:22;;;;;;;;;;;9.90;63.50;;;;;;4276299;33;38752;-76
2021/05/02 00:34:53;;;;;;;;;;;9.90;63.50;;;;;;4264634;33;32565;-76
2021/05/02 00:37:25;;;;;;;;;;;9.80;63.50;;;;;;4265367;33;20085;-77
2021/05/02 00:39:55;;;;;;;;;;;9.80;63.60;;;;;;4264487;33;43769;-77
2021/05/02 00:42:29;;;;;;;;;;;9.70;63.60;;;;;;4275644;33;44349;-77
2021/05/02 00:45:11;;;;;;;;;;;9.80;63.70;;;;;;4277643;33;20077;-77
2021/05/02 00:47:44;;;;;;;;;;;9.70;63.70;;;;;;4264412;33;44727;-76
2021/05/02 00:50:20;;;;;;;;;;;9.70;63.80;;;;;;4276836;33;32432;-77
2021/05/02 00:52:52;;;;;;;;;;;9.70;64.00;;;;;;4263860;33;44537;-77
2021/05/02 00:55:27;;;;;;;;;;;9.60;64.00;;;;;;4265805;33;20036;-77
2021/05/02 00:58:10;;;;;;;;;;;9.60;64.30;;;;;;4265674;33;20007;-77
2021/05/02 01:00:39;;;;;;;;;;;9.50;64.30;;;;;;4289438;33;31942;-76
2021/05/02 01:03:08;;;;;;;;;;;9.50;64.50;;;;;;4275488;33;45904;-76
2021/05/02 01:05:46;;;;;;;;;;;9.50;64.60;;;;;;4264696;33;37178;-77
2021/05/02 01:08:18;;;;;;;;;;;9.40;64.70;;;;;;4276102;33;40622;-76
2021/05/02 01:10:56;;;;;;;;;;;9.40;64.80;;;;;;4265324;33;20022;-76
2021/05/02 01:13:30;;;;;;;;;;;9.40;65.00;;;;;;4288712;33;39834;-76
2021/05/02 01:16:12;;;;;;;;;;;9.40;65.10;;;;;;4277414;33;20033;-76
2021/05/02 01:18:42;;;;;;;;;;;9.40;65.00;;;;;;4289899;33;20007;-76
2021/05/02 01:21:13;;;;;;;;;;;9.40;65.10;;;;;;4265031;33;20002;-76
2021/05/02 01:23:43;;;;;;;;;;;9.40;65.20;;;;;;4276793;33;20075;-76
2021/05/02 01:26:19;;;;;;;;;;;9.30;65.30;;;;;;4276810;33;20089;-77
2021/05/02 01:28:51;;;;;;;;;;;9.30;65.40;;;;;;4263702;33;44487;-77
2021/05/02 01:31:27;;;;;;;;;;;9.30;65.50;;;;;;4276382;33;33175;-77
2021/05/02 01:33:57;;;;;;;;;;;9.30;65.50;;;;;;4265037;33;20005;-77
2021/05/02 01:36:27;;;;;;;;;;;9.30;65.50;;;;;;4289417;33;20378;-77
2021/05/02 01:39:03;;;;;;;;;;;9.30;65.60;;;;;;4288827;33;23674;-77
2021/05/02 01:41:32;;;;;;;;;;;9.20;65.60;;;;;;4263560;33;28788;-77
2021/05/02 01:43:59;;;;;;;;;;;9.30;65.80;;;;;;4288505;33;32395;-77
2021/05/02 01:46:41;;;;;;;;;;;9.20;65.80;;;;;;4275912;33;38749;-77
2021/05/02 01:49:15;;;;;;;;;;;9.20;65.80;;;;;;4263331;33;46951;-77
2021/05/02 01:51:50;;;;;;;;;;;9.10;65.80;;;;;;4276838;33;20014;-77
2021/05/02 01:54:25;;;;;;;;;;;9.10;66.00;;;;;;4275120;33;40766;-77
2021/05/02 01:56:57;;;;;;;;;;;9.10;66.20;;;;;;4288775;33;28462;-77
2021/05/02 01:59:29;;;;;;;;;;;9.10;66.30;;;;;;4275656;33;29091;-77
2021/05/02 02:01:56;;;;;;;;;;;9.10;66.40;;;;;;4275699;33;20438;-77
2021/05/02 02:04:31;;;;;;;;;;;9.10;67.30;;;;;;4275563;33;33007;-77
2021/05/02 02:07:03;;;;;;;;;;;9.00;66.60;;;;;;4275718;33;26460;-77
2021/05/02 02:09:34;;;;;;;;;;;9.00;66.70;;;;;;4288515;33;28376;-77
2021/05/02 02:12:07;;;;;;;;;;;8.90;66.80;;;;;;4264456;33;20050;-77
2021/05/02 02:14:39;;;;;;;;;;;9.00;67.10;;;;;;4288232;33;26661;-77
2021/05/02 02:17:09;;;;;;;;;;;8.90;67.10;;;;;;4263217;33;42216;-77
2021/05/02 02:19:42;;;;;;;;;;;8.90;67.30;;;;;;4276176;33;20011;-77
2021/05/02 02:22:18;;;;;;;;;;;8.90;67.40;;;;;;4276028;33;20384;-77
2021/05/02 02:24:58;;;;;;;;;;;8.90;67.70;;;;;;4275221;33;43185;-77
2021/05/02 02:27:32;;;;;;;;;;;8.80;67.90;;;;;;4262895;33;43678;-77
2021/05/02 02:30:06;;;;;;;;;;;8.90;68.10;;;;;;4274751;33;39022;-77
2021/05/02 02:32:44;;;;;;;;;;;8.80;68.20;;;;;;4275648;33;20021;-77
2021/05/02 02:35:18;;;;;;;;;;;8.80;68.40;;;;;;4275169;33;23725;-77
2021/05/02 02:37:50;;;;;;;;;;;8.80;68.80;;;;;;4262971;33;37738;-76
2021/05/02 02:40:25;;;;;;;;;;;8.80;68.80;;;;;;4288174;33;27880;-77
2021/05/02 02:42:55;;;;;;;;;;;8.70;69.10;;;;;;4287510;33;38307;-76
2021/05/02 02:45:25;;;;;;;;;;;8.70;69.20;;;;;;4275931;33;20019;-77
2021/05/02 02:47:58;;;;;;;;;;;8.70;69.20;;;;;;4264120;33;20032;-77
2021/05/02 02:50:30;;;;;;;;;;;8.70;69.50;;;;;;4275912;33;20070;-77
2021/05/02 02:53:02;;;;;;;;;;;8.70;69.90;;;;;;4262084;33;43384;-76
2021/05/02 02:55:39;;;;;;;;;;;8.70;69.90;;;;;;4275825;33;20010;-77
2021/05/02 02:58:16;;;;;;;;;;;8.60;70.00;;;;;;4288755;33;20014;-77
2021/05/02 03:00:49;;;;;;;;;;;8.60;70.10;;;;;;4263177;33;20043;-77
2021/05/02 03:03:24;;;;;;;;;;;8.70;70.40;;;;;;4275231;33;20014;-77
2021/05/02 03:05:58;;;;;;;;;;;8.70;70.50;;;;;;4275744;33;20534;-76
2021/05/02 03:08:32;;;;;;;;;;;8.60;70.60;;;;;;4263361;33;20071;-76
2021/05/02 03:11:07;;;;;;;;;;;8.60;70.80;;;;;;4275661;33;20014;-76
2021/05/02 03:13:40;;;;;;;;;;;8.60;70.70;;;;;;4263796;33;20360;-76
2021/05/02 03:16:13;;;;;;;;;;;8.60;70.80;;;;;;4263791;33;20403;-76
2021/05/02 03:19:00;;;;;;;;;;;8.70;71.00;;;;;;4288612;33;20070;-76
2021/05/02 03:21:38;;;;;;;;;;;8.70;71.40;;;;;;4279620;33;39733;-76
2021/05/02 03:24:10;;;;;;;;;;;8.70;71.20;;;;;;4274280;33;44868;-76
2021/05/02 03:26:40;;;;;;;;;;;8.60;71.60;;;;;;4275379;33;20396;-76
2021/05/02 03:29:19;;;;;;;;;;;8.70;71.80;;;;;;4275460;33;20018;-77
2021/05/02 03:31:52;;;;;;;;;;;8.70;71.80;;;;;;4274190;33;43471;-76
2021/05/02 03:34:25;;;;;;;;;;;8.70;71.90;;;;;;4287438;33;32818;-76
2021/05/02 03:36:59;;;;;;;;;;;8.70;72.00;;;;;;4287723;33;24265;-76
2021/05/02 03:39:35;;;;;;;;;;;8.70;72.00;;;;;;4288474;33;20015;-76
2021/05/02 03:42:07;;;;;;;;;;;8.70;72.20;;;;;;4273926;33;44701;-76
2021/05/02 03:44:39;;;;;;;;;;;8.70;72.30;;;;;;4287195;33;39283;-76
2021/05/02 03:47:15;;;;;;;;;;;8.70;72.40;;;;;;4263482;33;20062;-76
2021/05/02 03:49:47;;;;;;;;;;;8.70;72.40;;;;;;4287336;33;34184;-76
2021/05/02 03:52:17;;;;;;;;;;;8.70;72.50;;;;;;4275120;33;20007;-76
2021/05/02 03:54:53;;;;;;;;;;;8.70;72.70;;;;;;4274633;33;20009;-76
2021/05/02 03:57:23;;;;;;;;;;;8.70;72.80;;;;;;4275365;33;20006;-76
2021/05/02 03:59:52;;;;;;;;;;;8.70;73.10;;;;;;4275492;33;20003;-76
2021/05/02 04:02:27;;;;;;;;;;;8.70;72.90;;;;;;4286936;33;27590;-76
2021/05/02 04:05:03;;;;;;;;;;;8.70;73.20;;;;;;4275822;33;20048;-76
2021/05/02 04:07:32;;;;;;;;;;;8.70;73.30;;;;;;4278064;33;20434;-76
2021/05/02 04:10:05;;;;;;;;;;;8.70;73.50;;;;;;4277412;33;20383;-76
2021/05/02 04:12:37;;;;;;;;;;;8.70;73.60;;;;;;4277581;33;20117;-76
2021/05/02 04:15:10;;;;;;;;;;;8.70;73.90;;;;;;4290992;33;20010;-76
2021/05/02 04:17:39;;;;;;;;;;;8.70;73.80;;;;;;4277857;33;20046;-76
2021/05/02 04:20:12;;;;;;;;;;;8.70;73.90;;;;;;4277451;33;20009;-76
2021/05/02 04:22:42;;;;;;;;;;;8.70;74.20;;;;;;4277859;33;20014;-76
2021/05/02 04:25:14;;;;;;;;;;;8.70;74.40;;;;;;4277230;33;20029;-76
2021/05/02 04:27:48;;;;;;;;;;;8.80;74.50;;;;;;4276853;33;36516;-76
2021/05/02 04:30:20;;;;;;;;;;;8.80;74.50;;;;;;4290674;33;20014;-76
2021/05/02 04:32:52;;;;;;;;;;;8.80;74.60;;;;;;4277605;33;20009;-76
2021/05/02 04:35:24;;;;;;;;;;;8.90;74.70;;;;;;4276076;33;40145;-76
2021/05/02 04:37:55;;;;;;;;;;;8.90;74.80;;;;;;4289589;33;27689;-76
2021/05/02 04:40:31;;;;;;;;;;;8.90;74.90;;;;;;4277338;33;21577;-76
2021/05/02 04:43:03;;;;;;;;;;;8.90;75.00;;;;;;4276249;33;43825;-76
2021/05/02 04:45:33;;;;;;;;;;;8.90;74.90;;;;;;4276971;33;32358;-76
2021/05/02 04:48:04;;;;;;;;;;;8.90;75.00;;;;;;4276887;33;25808;-76
2021/05/02 04:50:34;;;;;;;;;;;9.00;75.10;;;;;;4277361;33;20075;-76
2021/05/02 04:53:05;;;;;;;;;;;9.00;75.00;;;;;;4276733;33;33246;-76
2021/05/02 04:55:37;;;;;;;;;;;9.00;75.00;;;;;;4265463;33;20029;-77
2021/05/02 04:58:09;;;;;;;;;;;9.00;75.20;;;;;;4289501;33;37603;-77
2021/05/02 05:00:42;;;;;;;;;;;9.00;75.20;;;;;;4290001;33;20021;-76
2021/05/02 05:03:18;;;;;;;;;;;9.00;75.40;;;;;;4277251;33;20010;-77
2021/05/02 05:05:53;;;;;;;;;;;9.00;75.40;;;;;;4265378;33;20419;-76
2021/05/02 05:08:31;;;;;;;;;;;9.00;75.60;;;;;;4277216;33;20440;-77
2021/05/02 05:11:07;;;;;;;;;;;9.00;75.30;;;;;;4276521;33;27388;-77
2021/05/02 05:13:39;;;;;;;;;;;9.00;75.60;;;;;;4265211;33;20013;-77
2021/05/02 05:16:08;;;;;;;;;;;9.00;75.50;;;;;;4275407;33;43963;-77
2021/05/02 05:18:41;;;;;;;;;;;8.90;75.40;;;;;;4288893;33;31561;-77
2021/05/02 05:21:14;;;;;;;;;;;9.00;75.70;;;;;;4276909;33;20018;-76
2021/05/02 05:23:47;;;;;;;;;;;8.90;75.60;;;;;;4290012;33;20044;-77
2021/05/02 05:26:17;;;;;;;;;;;8.90;75.70;;;;;;4276118;33;22069;-77
2021/05/02 05:28:49;;;;;;;;;;;8.90;75.90;;;;;;4276698;33;20028;-77
2021/05/02 05:31:21;;;;;;;;;;;8.90;76.00;;;;;;4289725;33;20049;-77
2021/05/02 05:33:51;;;;;;;;;;;8.90;76.20;;;;;;4288530;33;41705;-77
2021/05/02 05:36:23;;;;;;;;;;;8.80;76.00;;;;;;4276195;33;20040;-76
2021/05/02 05:38:58;;;;;;;;;;;8.80;76.30;;;;;;4276568;33;20015;-77
2021/05/02 05:41:27;;;;;;;;;;;8.90;76.40;;;;;;4275524;33;39723;-77
2021/05/02 05:44:03;;;;;;;;;;;8.80;76.40;;;;;;4276261;33;20010;-77
2021/05/02 05:46:38;;;;;;;;;;;8.80;76.60;;;;;;4276471;33;20074;-77
2021/05/02 05:49:11;;;;;;;;;;;8.80;77.40;;;;;;4265049;33;19994;-77
2021/05/02 05:51:49;;;;;;;;;;;8.80;76.80;;;;;;4276337;33;20010;-77
2021/05/02 05:54:22;;;;;;;;;;;8.80;76.70;;;;;;4263232;33;45165;-77
2021/05/02 05:56:59;;;;;;;;;;;8.80;76.90;;;;;;4277266;33;20010;-77
2021/05/02 05:59:31;;;;;;;;;;;8.80;77.10;;;;;;4275823;33;20046;-77
2021/05/02 06:02:06;;;;;;;;;;;8.80;76.90;;;;;;4263087;33;44472;-77
2021/05/02 06:04:39;;;;;;;;;;;8.80;77.10;;;;;;4289326;33;20058;-77
2021/05/02 06:07:11;;;;;;;;;;;8.90;77.20;;;;;;4288602;33;30485;-77
2021/05/02 06:09:46;;;;;;;;;;;8.80;77.40;;;;;;4264832;33;19998;-77
2021/05/02 06:12:16;;;;;;;;;;;8.80;77.30;;;;;;4276150;33;20015;-77
2021/05/02 06:14:50;;;;;;;;;;;8.90;77.30;;;;;;4276271;33;20036;-77
2021/05/02 06:17:19;;;;;;;;;;;8.90;77.50;;;;;;4263074;33;43251;-77
2021/05/02 06:19:54;;;;;;;;;;;8.90;77.50;;;;;;4263631;33;20003;-77
2021/05/02 06:22:24;;;;;;;;;;;8.90;77.40;;;;;;4274775;33;44259;-77
2021/05/02 06:24:57;;;;;;;;;;;8.90;77.40;;;;;;4262971;33;43388;-77
2021/05/02 06:27:26;;;;;;;;;;;8.90;77.30;;;;;;4287684;33;44518;-77
2021/05/02 06:29:59;;;;;;;;;;;9.00;77.30;;;;;;4287525;33;36302;-77
2021/05/02 06:32:34;;;;;;;;;;;9.00;77.40;;;;;;4275672;33;20396;-77
2021/05/02 06:35:07;;;;;;;;;;;9.00;77.30;;;;;;4262980;33;44429;-77
2021/05/02 06:37:39;;;;;;;;;;;9.00;77.20;;;;;;4274741;33;44973;-77
2021/05/02 06:40:12;;;;;;;;;;;9.00;77.20;;;;;;4274323;33;44754;-77
2021/05/02 06:42:44;;;;;;;;;;;9.00;77.30;;;;;;4274717;33;37368;-77
2021/05/02 06:45:16;;;;;;;;;;;9.00;77.20;;;;;;4275182;33;29215;-77
2021/05/02 06:47:49;;;;;;;;;;;9.00;77.00;;;;;;4274998;33;35972;-77
2021/05/02 06:50:21;;;;;;;;;;;9.10;77.00;;;;;;4288170;33;23622;-77
2021/05/02 06:52:53;;;;;;;;;;;9.10;76.90;;;;;;4275668;33;20028;-77
2021/05/02 06:55:23;;;;;;;;;;;9.10;76.90;;;;;;4289018;33;20006;-77
2021/05/02 06:57:58;;;;;;;;;;;9.10;76.80;;;;;;4288666;33;20003;-77
2021/05/02 07:00:34;;;;;;;;;;;9.10;76.70;;;;;;4274510;33;45215;-77
2021/05/02 07:03:04;;;;;;;;;;;9.10;76.60;;;;;;4286923;33;44963;-77
2021/05/02 07:05:36;;;;;;;;;;;9.10;76.60;;;;;;4288876;33;20122;-77
2021/05/02 07:08:09;;;;;;;;;;;9.10;76.50;;;;;;4263996;33;20414;-77
2021/05/02 07:10:41;;;;;;;;;;;9.10;76.30;;;;;;4288408;33;20074;-77
2021/05/02 07:13:13;;;;;;;;;;;9.20;76.30;;;;;;4263641;33;19995;-77
2021/05/02 07:15:45;;;;;;;;;;;9.20;76.20;;;;;;4275652;33;20066;-77
2021/05/02 07:18:18;;;;;;;;;;;9.20;76.10;;;;;;4263679;33;20046;-77
2021/05/02 07:20:45;;;;;;;;;;;9.20;76.10;;;;;;4288241;33;20326;-77
2021/05/02 07:23:21;;;;;;;;;;;9.20;76.00;;;;;;4275198;33;20027;-77
2021/05/02 07:25:53;;;;;;;;;;;9.20;75.80;;;;;;4288310;33;20058;-77
2021/05/02 07:28:28;;;;;;;;;;;9.20;75.80;;;;;;4275346;33;20416;-77
2021/05/02 07:31:01;;;;;;;;;;;9.20;75.80;;;;;;4275432;33;20015;-77
2021/05/02 07:33:33;;;;;;;;;;;9.20;75.80;;;;;;4263781;33;20042;-76
2021/05/02 07:36:03;;;;;;;;;;;9.20;75.70;;;;;;4274816;33;24444;-77
2021/05/02 07:38:35;;;;;;;;;;;9.20;75.60;;;;;;4263272;33;20011;-77
2021/05/02 07:41:07;;;;;;;;;;;9.30;75.60;;;;;;4277741;33;20078;-77
2021/05/02 07:43:40;;;;;;;;;;;9.30;75.40;;;;;;4277809;33;20003;-77
2021/05/02 07:46:15;;;;;;;;;;;9.30;75.50;;;;;;4278280;33;20006;-77
2021/05/02 07:48:45;;;;;;;;;;;9.30;75.40;;;;;;4278382;33;20014;-77
2021/05/02 07:51:18;;;;;;;;;;;9.30;75.40;;;;;;4277691;33;20022;-77
2021/05/02 07:53:50;;;;;;;;;;;9.30;75.50;;;;;;4266812;33;20355;-77
2021/05/02 07:56:26;;;;;;;;;;;9.30;75.40;;;;;;4265803;33;20014;-77
2021/05/02 07:58:55;;;;;;;;;;;9.30;75.30;;;;;;4277917;33;20088;-77
2021/05/02 08:01:28;;;;;;;;;;;9.30;75.10;;;;;;4265316;33;31026;-77
2021/05/02 08:03:58;;;;;;;;;;;9.40;74.60;;;;;;4265884;33;20009;-77
2021/05/02 08:06:32;;;;;;;;;;;9.30;74.10;;;;;;4291292;33;20011;-77
2021/05/02 08:09:02;;;;;;;;;;;9.40;74.20;;;;;;4278146;33;20085;-77
2021/05/02 08:11:36;;;;;;;;;;;9.40;74.30;;;;;;4277754;33;19999;-77
2021/05/02 08:14:04;;;;;;;;;;;9.40;74.40;;;;;;4278007;33;20034;-77
2021/05/02 08:16:34;;;;;;;;;;;9.40;74.20;;;;;;4290418;33;20010;-77
2021/05/02 08:19:06;;;;;;;;;;;9.40;74.00;;;;;;4276893;33;43077;-77
2021/05/02 08:21:35;;;;;;;;;;;9.40;74.20;;;;;;4264637;33;47179;-77
2021/05/02 08:24:05;;;;;;;;;;;9.40;73.90;;;;;;4264796;33;39763;-76
2021/05/02 08:26:41;;;;;;;;;;;9.40;73.70;;;;;;4265731;33;20392;-77
2021/05/02 08:29:17;;;;;;;;;;;9.40;73.40;;;;;;4265617;33;20438;-77
2021/05/02 08:31:49;;;;;;;;;;;9.40;73.20;;;;;;4277696;33;20027;-77
2021/05/02 08:34:18;;;;;;;;;;;9.40;73.30;;;;;;4289086;33;37517;-77
2021/05/02 08:36:45;;;;;;;;;;;9.40;73.10;;;;;;4290517;33;20020;-77
2021/05/02 08:39:17;;;;;;;;;;;9.40;73.00;;;;;;4290536;33;20463;-77
2021/05/02 08:41:50;;;;;;;;;;;9.40;73.10;;;;;;4276380;33;40669;-77
2021/05/02 08:44:26;;;;;;;;;;;9.40;73.10;;;;;;4264768;33;19995;-77
2021/05/02 08:46:58;;;;;;;;;;;9.40;73.00;;;;;;4265010;33;34462;-77
2021/05/02 08:49:28;;;;;;;;;;;9.40;72.80;;;;;;4276099;33;43625;-77
2021/05/02 08:52:00;;;;;;;;;;;9.40;72.80;;;;;;4276321;33;38892;-77
2021/05/02 08:54:28;;;;;;;;;;;9.50;72.70;;;;;;4289164;33;44772;-77
2021/05/02 08:56:57;;;;;;;;;;;9.50;72.50;;;;;;4289863;33;20034;-77
2021/05/02 08:59:32;;;;;;;;;;;9.50;72.40;;;;;;4290368;33;20034;-77
2021/05/02 09:02:05;;;;;;;;;;;9.50;72.20;;;;;;4288837;33;36195;-77
2021/05/02 09:04:35;;;;;;;;;;;9.50;72.20;;;;;;4276540;33;34162;-77
2021/05/02 09:07:16;;;;;;;;;;;9.50;71.90;;;;;;4265006;33;20062;-77
2021/05/02 09:09:48;;;;;;;;;;;9.50;71.80;;;;;;4276309;33;35913;-77
2021/05/02 09:12:19;;;;;;;;;;;9.50;71.90;;;;;;4277221;33;20452;-77
2021/05/02 09:14:56;;;;;;;;;;;9.50;71.80;;;;;;4290068;33;20028;-77
2021/05/02 09:17:28;;;;;;;;;;;9.50;71.80;;;;;;4264850;33;20013;-76
2021/05/02 09:20:02;;;;;;;;;;;9.50;71.80;;;;;;4264727;33;20024;-76
2021/05/02 09:22:31;;;;;;;;;;;9.50;71.60;;;;;;4276049;33;20006;-76
2021/05/02 09:25:04;;;;;;;;;;;9.50;71.60;;;;;;4264035;33;40108;-77
2021/05/02 09:27:30;;;;;;;;;;;9.50;71.40;;;;;;4277036;33;20025;-76
2021/05/02 09:30:14;;;;;;;;;;;9.60;71.40;;;;;;4276490;33;20065;-76
2021/05/02 09:32:44;;;;;;;;;;;9.60;71.40;;;;;;4276726;33;20010;-76
2021/05/02 09:35:23;;;;;;;;;;;9.50;71.40;;;;;;4275826;33;28100;-76
2021/05/02 09:38:10;;;;;;;;;;;9.60;71.30;;;;;;4289849;33;20392;-76
2021/05/02 09:41:03;;;;;;;;;;;9.60;71.00;;;;;;4276890;33;20024;-76
2021/05/02 09:43:33;;;;;;;;;;;9.60;70.80;;;;;;4275065;33;20002;-76
2021/05/02 09:46:30;;;;;;;;;;;9.60;70.70;;;;;;4276566;33;20014;-76
2021/05/02 09:49:10;;;;;;;;;;;9.60;70.70;;;;;;4288959;33;20006;-77
2021/05/02 09:51:37;;;;;;;;;;;9.60;70.40;;;;;;4275561;33;44222;-76
2021/05/02 09:54:08;;;;;;;;;;;9.60;70.40;;;;;;4288437;33;38444;-76
2021/05/02 09:56:39;;;;;;;;;;;9.60;70.40;;;;;;4276175;33;20017;-77
2021/05/02 09:59:19;;;;;;;;;;;9.60;70.60;;;;;;4276940;33;20021;-77
2021/05/02 10:02:04;;;;;;;;;;;9.60;70.50;;;;;;4289176;33;20147;-77
2021/05/02 10:04:33;;;;;;;;;;;9.60;70.20;;;;;;4276227;33;20015;-77
2021/05/02 10:07:08;;;;;;;;;;;9.60;70.10;;;;;;4264550;33;20007;-77
2021/05/02 10:09:45;;;;;;;;;;;9.60;69.60;;;;;;4264794;33;20003;-77
2021/05/02 10:12:21;;;;;;;;;;;9.70;69.70;;;;;;4264901;33;20003;-76
2021/05/02 10:14:54;;;;;;;;;;;9.70;70.10;;;;;;4264620;33;20006;-77
2021/05/02 10:17:32;;;;;;;;;;;9.70;69.80;;;;;;4264485;33;20070;-77
2021/05/02 10:19:59;;;;;;;;;;;9.70;69.20;;;;;;4274773;33;43552;-77
2021/05/02 10:22:28;;;;;;;;;;;9.70;69.60;;;;;;4288661;33;20085;-77
2021/05/02 10:25:01;;;;;;;;;;;9.70;69.50;;;;;;4275911;33;20389;-77
2021/05/02 10:27:37;;;;;;;;;;;9.70;69.40;;;;;;4274915;33;41716;-77
2021/05/02 10:30:12;;;;;;;;;;;9.70;69.10;;;;;;4264067;33;20364;-77
2021/05/02 10:33:00;;;;;;;;;;;9.80;69.80;;;;;;4274462;33;41890;-77
2021/05/02 10:35:41;;;;;;;;;;;9.80;68.80;;;;;;4275654;33;20044;-77
2021/05/02 10:38:08;;;;;;;;;;;9.80;68.70;;;;;;4287912;33;40731;-77
2021/05/02 10:40:39;;;;;;;;;;;9.80;68.40;;;;;;4287248;33;38860;-77
2021/05/02 10:43:25;;;;;;;;;;;9.80;68.10;;;;;;4275768;33;20017;-77
2021/05/02 10:45:57;;;;;;;;;;;9.80;68.00;;;;;;4275919;33;20011;-76
2021/05/02 10:48:34;;;;;;;;;;;9.80;67.80;;;;;;4263030;33;30614;-77
2021/05/02 10:51:04;;;;;;;;;;;9.90;67.70;;;;;;4262387;33;43417;-77
2021/05/02 10:53:51;;;;;;;;;;;9.90;67.60;;;;;;4275372;33;20058;-77
2021/05/02 10:56:42;;;;;;;;;;;9.90;67.50;;;;;;4275271;33;20014;-77
2021/05/02 10:59:12;;;;;;;;;;;9.90;67.70;;;;;;4288734;33;20077;-77
2021/05/02 11:01:42;;;;;;;;;;;9.90;67.80;;;;;;4275697;33;20028;-77
2021/05/02 11:04:15;;;;;;;;;;;9.90;68.00;;;;;;4274058;33;40068;-76
2021/05/02 11:06:44;;;;;;;;;;;10.00;68.00;;;;;;4274677;33;43349;-77
2021/05/02 11:09:17;;;;;;;;;;;10.00;67.30;;;;;;4288106;33;20404;-76
2021/05/02 11:11:55;;;;;;;;;;;10.00;67.20;;;;;;4276199;33;20074;-77
2021/05/02 11:14:32;;;;;;;;;;;10.10;67.00;;;;;;4287596;33;20062;-77
2021/05/02 11:17:02;;;;;;;;;;;10.10;66.80;;;;;;4274472;33;42395;-77
2021/05/02 11:19:54;;;;;;;;;;;10.10;66.90;;;;;;4275422;33;20003;-77
2021/05/02 11:22:27;;;;;;;;;;;10.10;66.80;;;;;;4263255;33;20438;-77
2021/05/02 11:24:58;;;;;;;;;;;10.10;66.90;;;;;;4274571;33;28756;-77
2021/05/02 11:27:48;;;;;;;;;;;10.00;67.30;;;;;;4263754;33;20003;-77
2021/05/02 11:30:21;;;;;;;;;;;10.00;67.50;;;;;;4263009;33;19995;-77
2021/05/02 11:32:55;;;;;;;;;;;10.00;67.70;;;;;;4287149;33;42893;-77
2021/05/02 11:35:39;;;;;;;;;;;10.00;67.90;;;;;;4288556;33;20006;-79
2021/05/02 11:38:14;;;;;;;;;;;10.00;67.90;;;;;;4262345;33;45024;-77
2021/05/02 11:40:45;;;;;;;;;;;10.00;68.00;;;;;;4275345;33;20045;-77
2021/05/02 11:43:28;;;;;;;;;;;9.90;68.10;;;;;;4275177;33;20018;-77
2021/05/02 11:45:59;;;;;;;;;;;9.80;68.00;;;;;;4273843;33;46677;-77
2021/05/02 11:48:35;;;;;;;;;;;9.80;68.00;;;;;;4275505;33;20014;-77
2021/05/02 11:51:09;;;;;;;;;;;9.80;68.30;;;;;;4273964;33;33359;-77
2021/05/02 11:53:49;;;;;;;;;;;9.80;68.50;;;;;;4287535;33;20018;-77
2021/05/02 11:56:22;;;;;;;;;;;9.90;68.50;;;;;;4263575;33;19998;-77
2021/05/02 11:58:55;;;;;;;;;;;9.90;68.20;;;;;;4263288;33;20015;-77
2021/05/02 12:01:30;;;;;;;;;;;9.90;68.00;;;;;;4275091;33;20033;-77
2021/05/02 12:04:04;;;;;;;;;;;10.00;68.00;;;;;;4286903;33;44946;-77
2021/05/02 12:06:38;;;;;;;;;;;10.10;67.80;;;;;;4274798;33;20022;-77
2021/05/02 12:09:31;;;;;;;;;;;10.10;67.20;;;;;;4263933;33;20002;-77
2021/05/02 12:12:06;;;;;;;;;;;10.10;66.70;;;;;;4287123;33;39414;-77
2021/05/02 12:14:39;;;;;;;;;;;10.10;66.40;;;;;;4273977;33;43669;-77
2021/05/02 12:17:18;;;;;;;;;;;10.20;66.70;;;;;;4273977;33;35522;-77
2021/05/02 12:19:52;;;;;;;;;;;10.20;67.50;;;;;;4287180;33;38185;-77
2021/05/02 12:22:25;;;;;;;;;;;10.20;66.60;;;;;;4288202;33;20047;-77
2021/05/02 12:24:54;;;;;;;;;;;10.30;66.30;;;;;;4274973;33;20044;-77
2021/05/02 12:27:30;;;;;;;;;;;10.30;66.20;;;;;;4277164;33;20062;-77
2021/05/02 12:30:03;;;;;;;;;;;10.30;65.60;;;;;;4265523;33;19998;-78
2021/05/02 12:32:32;;;;;;;;;;;10.40;65.30;;;;;;4265052;33;25581;-77
2021/05/02 12:35:09;;;;;;;;;;;10.40;65.70;;;;;;4277780;33;20033;-77
2021/05/02 12:37:44;;;;;;;;;;;10.40;66.10;;;;;;4277112;33;20016;-77
2021/05/02 12:40:15;;;;;;;;;;;10.40;66.20;;;;;;4277084;33;20032;-77
2021/05/02 12:42:48;;;;;;;;;;;10.40;66.30;;;;;;4276778;33;33184;-77
2021/05/02 12:45:20;;;;;;;;;;;10.50;66.40;;;;;;4264483;33;33425;-77
2021/05/02 12:47:53;;;;;;;;;;;10.40;66.50;;;;;;4276661;33;26953;-77
2021/05/02 12:50:40;;;;;;;;;;;10.40;66.60;;;;;;4290572;33;20044;-77
2021/05/02 12:53:13;;;;;;;;;;;10.50;66.80;;;;;;4289978;33;20408;-77
2021/05/02 12:56:00;;;;;;;;;;;10.40;67.00;;;;;;4264324;33;45025;-77
2021/05/02 12:58:37;;;;;;;;;;;10.50;67.30;;;;;;4290019;33;20016;-77
2021/05/02 13:01:15;;;;;;;;;;;10.40;67.20;;;;;;4265567;33;20055;-77
2021/05/02 13:03:55;;;;;;;;;;;10.40;67.20;;;;;;4289942;33;20014;-77
2021/05/02 13:06:27;;;;;;;;;;;10.50;67.40;;;;;;4290357;33;20010;-77
2021/05/02 13:09:05;;;;;;;;;;;10.50;67.10;;;;;;4290023;33;20058;-77
2021/05/02 13:11:41;;;;;;;;;;;10.50;66.90;;;;;;4290267;33;20058;-77
2021/05/02 13:14:20;;;;;;;;;;;10.50;66.80;;;;;;4276051;33;40174;-77
2021/05/02 13:16:51;;;;;;;;;;;10.50;66.60;;;;;;4277060;33;20010;-77
2021/05/02 13:19:29;;;;;;;;;;;10.50;66.70;;;;;;4290072;33;20010;-77
2021/05/02 13:22:16;;;;;;;;;;;10.60;66.60;;;;;;4290098;33;20476;-77
2021/05/02 13:24:55;;;;;;;;;;;10.60;66.40;;;;;;4275454;33;43421;-77
2021/05/02 13:27:43;;;;;;;;;;;10.60;66.40;;;;;;4277376;33;20045;-77
2021/05/02 13:30:13;;;;;;;;;;;10.60;66.50;;;;;;4275668;33;37326;-77
2021/05/02 13:32:58;;;;;;;;;;;10.70;66.60;;;;;;4264721;33;20476;-77
2021/05/02 13:35:34;;;;;;;;;;;10.70;66.60;;;;;;4289476;33;20377;-77
2021/05/02 13:38:07;;;;;;;;;;;10.70;66.40;;;;;;4274992;33;33724;-77
2021/05/02 13:40:38;;;;;;;;;;;10.80;66.30;;;;;;4276138;33;25652;-77
2021/05/02 13:43:10;;;;;;;;;;;10.80;66.30;;;;;;4276669;33;20022;-77
2021/05/02 13:45:41;;;;;;;;;;;10.80;66.30;;;;;;4276561;33;20017;-77
2021/05/02 13:48:16;;;;;;;;;;;10.90;65.50;;;;;;4289529;33;20074;-77
2021/05/02 13:50:48;;;;;;;;;;;10.90;65.30;;;;;;4275668;33;33965;-77
2021/05/02 13:53:18;;;;;;;;;;;11.00;65.60;;;;;;4289501;33;20010;-77
2021/05/02 13:55:50;;;;;;;;;;;11.00;65.40;;;;;;4263600;33;41530;-76
2021/05/02 13:58:23;;;;;;;;;;;11.00;65.30;;;;;;4276446;33;20046;-77
2021/05/02 14:00:59;;;;;;;;;;;11.10;65.20;;;;;;4288460;33;40076;-77
2021/05/02 14:03:35;;;;;;;;;;;11.10;65.20;;;;;;4274547;33;42616;-77
2021/05/02 14:06:02;;;;;;;;;;;11.10;65.00;;;;;;4288536;33;33309;-77
2021/05/02 14:08:50;;;;;;;;;;;11.20;64.90;;;;;;4278740;33;20392;-77
2021/05/02 14:11:20;;;;;;;;;;;11.20;64.70;;;;;;4276108;33;19998;-77
2021/05/02 14:13:56;;;;;;;;;;;11.20;64.50;;;;;;4287979;33;43510;-77
2021/05/02 14:16:25;;;;;;;;;;;11.30;63.50;;;;;;4275908;33;20042;-77
2021/05/02 14:19:04;;;;;;;;;;;11.30;63.90;;;;;;4263125;33;43250;-77
2021/05/02 14:21:31;;;;;;;;;;;11.40;63.90;;;;;;4263920;33;19994;-77
2021/05/02 14:24:04;;;;;;;;;;;11.40;63.50;;;;;;4264122;33;20008;-77
2021/05/02 14:26:37;;;;;;;;;;;11.40;63.50;;;;;;4275861;33;20389;-77
2021/05/02 14:29:07;;;;;;;;;;;11.40;63.10;;;;;;4276045;33;20092;-77
2021/05/02 14:31:39;;;;;;;;;;;11.40;63.10;;;;;;4288784;33;20070;-77
2021/05/02 14:34:10;;;;;;;;;;;11.40;63.30;;;;;;4274793;33;28999;-77
2021/05/02 14:36:50;;;;;;;;;;;11.40;63.30;;;;;;4263516;33;35635;-77
2021/05/02 14:39:23;;;;;;;;;;;11.40;64.30;;;;;;4275683;33;20010;-77
2021/05/02 14:42:13;;;;;;;;;;;11.40;63.40;;;;;;4275386;33;42071;-77
2021/05/02 14:44:41;;;;;;;;;;;11.40;63.50;;;;;;4264099;33;20416;-77
2021/05/02 14:47:08;;;;;;;;;;;11.50;63.60;;;;;;4287951;33;31561;-77
2021/05/02 14:49:36;;;;;;;;;;;11.50;63.70;;;;;;4274264;33;42888;-77
2021/05/02 14:52:13;;;;;;;;;;;11.50;63.70;;;;;;4287584;33;45031;-77
2021/05/02 14:54:41;;;;;;;;;;;11.50;63.90;;;;;;4288322;33;21900;-77
2021/05/02 14:57:11;;;;;;;;;;;11.50;64.10;;;;;;4262980;33;31039;-77
2021/05/02 14:59:38;;;;;;;;;;;11.60;64.10;;;;;;4274887;33;31666;-77
2021/05/02 15:02:08;;;;;;;;;;;11.60;63.40;;;;;;4275181;33;20440;-77
2021/05/02 15:04:39;;;;;;;;;;;11.60;63.30;;;;;;4263800;33;20006;-77